Latest Weather Observations for Morawa Airport

IDW60801

Issued at 1:32 pm WST Wednesday 1 June 2016 (issued every 30 minutes, with the page automatically refreshed every 10 minutes)

About weather observations | Map of weather stations | Latest weather observations for WA | Other Formats
Station Details ID: 008296 Name: MORAWA AIRPORT Lat: -29.20 Lon: 116.02 Height: 271.4 m
Data from the previous 72 hours. | See also: Recent months at Morawa Airport
Date/Time
WST
Temp
°C
App
Temp
°C
Dew
Point
Rel
Hum
%
Delta-T
°C
Wind Press
QNH
hPa
Press
MSL
hPa
Rain
since 9 am
mm
Dir
 
Spd
km/h
Gust
km/h
Spd
kts
Gust
kts
01/01:30pm 21.2 18.8 8.8 45 6.6 SE 11 17 6 9 1017.8 1017.6 0.0
01/01:00pm 20.3 18.4 8.9 48 6.1 SE 9 15 5 8 1018.1 1017.9 0.0
01/12:30pm 19.5 17.1 8.5 49 5.8 SE 11 17 6 9 1018.6 1018.4 0.0
01/12:00pm 18.6 16.4 8.0 50 5.5 SSE 9 15 5 8 1019.1 1018.9 0.0
01/11:30am 18.3 16.5 8.0 51 5.3 ESE 7 13 4 7 1019.6 1019.4 0.0
01/11:00am 17.8 15.3 8.4 54 4.9 ESE 11 19 6 10 1019.9 1019.7 0.0
01/10:30am 17.0 14.4 7.9 55 4.7 ESE 11 15 6 8 1020.3 1020.1 0.0
01/10:00am 15.5 12.8 7.5 59 4.0 SE 11 13 6 7 1020.6 1020.5 0.0
01/09:30am 14.3 11.7 7.6 64 3.4 SE 11 15 6 8 1020.8 1020.7 0.0
01/09:00am 13.1 10.4 7.5 69 2.8 SE 11 15 6 8 1020.9 1020.8 0.0
01/08:30am 11.4 9.6 8.1 80 1.6 SSE 7 11 4 6 1020.8 1020.7 0.0
01/08:00am 9.8 8.0 8.1 89 0.8 S 7 9 4 5 1020.6 1020.5 0.0
01/07:30am 8.1 6.5 8.1 100 0.0 S 6 6 3 3 1020.2 1019.6 0.0
01/07:00am 7.6 6.3 7.6 100 0.0 SSW 4 6 2 3 1020.0 1019.4 0.0
01/06:30am 7.8 6.1 7.7 99 0.0 SSW 6 7 3 4 1019.6 1019.0 0.0
01/06:00am 8.0 6.2 7.9 99 0.0 SSW 7 7 4 4 1019.6 1019.0 0.0
01/05:30am 8.5 6.7 8.1 97 0.2 SSW 7 9 4 5 1019.5 1018.9 0.0
01/05:00am 8.1 5.9 7.7 97 0.2 S 9 13 5 7 1019.4 1018.8 0.0
01/04:30am 8.9 7.1 8.1 95 0.4 SSW 7 11 4 6 1019.6 1019.0 0.0
01/04:00am 9.2 7.7 8.3 94 0.4 SW 6 6 3 3 1019.7 1019.1 0.0
01/03:30am 9.5 7.8 8.3 92 0.6 SSW 7 11 4 6 1019.9 1019.3 0.0
01/03:00am 9.7 7.7 8.5 92 0.6 S 9 13 5 7 1019.8 1019.2 0.0
01/02:30am 10.4 8.7 8.3 87 1.0 SSW 7 11 4 6 1019.9 1019.3 0.0
01/02:00am 10.6 8.1 8.2 85 1.2 SSW 11 15 6 8 1019.9 1019.3 0.0
01/01:30am 10.9 8.4 8.1 83 1.4 S 11 15 6 8 1020.0 1019.4 0.0
01/01:00am 11.2 9.1 8.1 81 1.5 S 9 15 5 8 1020.1 1019.5 0.0
01/12:30am 10.9 9.3 8.0 82 1.4 SW 6 7 3 4 1020.3 1019.7 0.0
01/12:00am 11.2 9.0 7.9 80 1.6 SSE 9 13 5 7 1020.3 1019.7 0.0
 
Date/Time
WST
Temp
°C
App
Temp
°C
Dew
Point
Rel
Hum
%
Delta-T
°C
Wind Press
QNH
hPa
Press
MSL
hPa
Rain
since 9 am
mm
Dir
 
Spd
km/h
Gust
km/h
Spd
kts
Gust
kts
31/11:30pm 11.4 8.7 7.3 76 2.0 SSE 11 17 6 9 1020.5 1019.9 0.0
31/11:00pm 11.4 8.3 7.1 75 2.1 SSE 13 19 7 10 1020.4 1019.8 0.0
31/10:30pm 11.4 8.6 7.1 75 2.1 SSE 11 13 6 7 1020.6 1020.0 0.0
31/10:00pm 11.9 9.5 7.0 72 2.4 S 9 13 5 7 1020.7 1020.2 0.0
31/09:30pm 12.4 10.0 7.1 70 2.6 S 9 13 5 7 1020.7 1020.2 0.0
31/09:00pm 12.9 10.5 7.1 68 2.8 S 9 13 5 7 1020.2 1019.6 0.0
31/08:30pm 12.9 10.9 7.1 68 2.8 S 7 9 4 5 1020.1 1019.5 0.0
31/08:00pm 13.3 11.0 7.5 68 2.9 S 9 13 5 7 1019.8 1019.2 0.0
31/07:30pm 13.5 11.8 7.7 68 2.9 S 6 9 3 5 1019.4 1018.8 0.0
31/07:00pm 14.4 12.5 7.7 64 3.4 S 7 9 4 5 1019.3 1018.7 0.0
31/06:30pm 14.9 13.1 7.9 63 3.5 S 7 9 4 5 1019.1 1018.5 0.0
31/06:00pm 16.1 13.9 7.8 58 4.2 S 9 13 5 7 1018.8 1018.2 0.0
31/05:30pm 16.5 13.9 7.7 56 4.5 SSE 11 13 6 7 1018.3 1017.7 0.0
31/05:00pm 18.6 15.5 7.4 48 5.7 SSE 13 17 7 9 1018.2 1017.6 0.0
31/04:30pm 19.8 14.8 6.5 42 6.8 SSE 22 28 12 15 1018.0 1017.4 0.0
31/04:00pm 20.4 16.0 6.7 41 7.0 SSE 19 28 10 15 1017.5 1016.8 0.0
31/03:30pm 20.6 16.3 7.2 42 6.9 SSE 19 26 10 14 1017.2 1016.6 0.0
31/03:00pm 20.8 16.2 6.7 40 7.2 SSE 20 28 11 15 1017.2 1016.6 0.0
31/02:30pm 20.9 16.5 7.5 42 7.0 SSE 20 32 11 17 1017.1 1016.5 0.0
31/02:00pm 20.4 15.8 6.7 41 7.0 SSE 20 30 11 16 1017.2 1016.6 0.0
31/01:30pm 20.5 16.7 7.5 43 6.8 SE 17 26 9 14 1017.2 1016.6 0.0
31/01:00pm 20.1 16.8 8.1 46 6.3 SSE 15 22 8 12 1017.9 1017.3 0.0
31/12:30pm 19.3 16.5 8.6 50 5.6 S 13 19 7 10 1018.4 1017.8 0.0
31/12:00pm 18.5 16.1 8.5 52 5.2 SSE 11 19 6 10 1018.9 1018.3 0.0
31/11:30am 17.9 15.5 8.7 55 4.8 SSE 11 15 6 8 1019.3 1018.7 0.0
31/11:00am 16.9 14.5 8.6 58 4.3 SSE 11 19 6 10 1019.7 1019.1 0.0
31/10:30am 15.6 13.5 8.4 62 3.7 SSE 9 13 5 7 1019.8 1019.2 0.0
31/10:00am 14.1 12.5 8.9 71 2.7 S 7 11 4 6 1020.1 1019.5 0.0
31/09:30am 12.5 10.5 8.6 77 2.0 SSE 9 11 5 6 1020.1 1019.5 0.0
31/09:00am 11.4 9.8 8.1 80 1.6 S 6 9 3 5 1020.1 1019.5 0.0
31/08:30am 10.8 9.7 8.4 85 1.2 S 4 6 2 3 1020.0 1019.4 0.0
31/08:00am 9.6 8.1 8.4 92 0.6 S 6 7 3 4 1019.9 1019.3 0.0
31/07:30am 8.7 7.6 8.3 97 0.2 SSW 4 6 2 3 1019.5 1018.9 0.0
31/07:00am 8.1 6.5 8.1 100 0.0 SSW 6 7 3 4 1019.4 1018.8 0.0
31/06:30am 8.2 6.6 7.9 98 0.1 SSW 6 9 3 5 1019.3 1018.7 0.0
31/06:00am 8.5 6.3 7.9 96 0.3 SSW 9 11 5 6 1019.1 1018.5 0.0
31/05:30am 8.2 6.6 8.2 100 0.0 SSW 6 7 3 4 1018.8 1018.2 0.0
31/05:00am 7.8 6.2 7.8 100 0.0 SSW 6 7 3 4 1018.9 1018.3 0.0
31/04:30am 6.7 4.8 6.7 100 0.0 SSW 6 7 3 4 1018.9 1018.3 0.0
31/04:00am 6.0 4.7 6.0 100 0.0 WSW 2 2 1 1 1018.9 1018.3 0.0
31/03:30am 6.7 5.6 6.7 100 0.0 WSW 2 4 1 2 1019.1 1018.5 0.0
31/03:00am 6.5 4.9 6.5 100 0.0 SW 4 6 2 3 1019.1 1018.5 0.0
31/02:30am 6.9 5.4 6.9 100 0.0 WSW 4 6 2 3 1019.2 1018.6 0.0
31/02:00am 7.1 5.3 7.1 100 0.0 SW 6 6 3 3 1019.1 1018.5 0.0
31/01:30am 6.9 5.4 6.9 100 0.0 S 4 6 2 3 1019.2 1018.6 0.0
31/01:00am 7.5 6.9 7.5 100 0.0 CALM 0 2 0 1 1019.1 1018.5 0.0
31/12:30am 7.7 6.4 7.7 100 0.0 SSE 4 6 2 3 1019.1 1018.5 0.0
31/12:00am 7.4 5.7 7.4 100 0.0 SSW 6 6 3 3 1019.3 1018.7 0.0
 
Date/Time
WST
Temp
°C
App
Temp
°C
Dew
Point
Rel
Hum
%
Delta-T
°C
Wind Press
QNH
hPa
Press
MSL
hPa
Rain
since 9 am
mm
Dir
 
Spd
km/h
Gust
km/h
Spd
kts
Gust
kts
30/11:30pm 8.0 6.7 7.7 98 0.1 S 4 6 2 3 1019.0 1018.4 0.0
30/11:00pm 8.4 7.1 7.6 95 0.4 SW 4 6 2 3 1019.0 1018.4 0.0
30/10:30pm 8.7 7.5 7.9 95 0.4 SSW 4 6 2 3 1019.2 1018.6 0.0
30/10:00pm 8.8 7.2 7.9 94 0.4 SSW 6 6 3 3 1019.3 1018.7 0.0
30/09:30pm 9.1 7.9 8.0 93 0.5 SSW 4 4 2 2 1019.2 1018.6 0.0
30/09:00pm 9.7 8.5 8.0 89 0.8 SSW 4 6 2 3 1019.1 1018.5 0.0
30/08:30pm 9.8 8.5 7.6 86 1.1 SSW 4 4 2 2 1019.0 1018.4 0.0
30/08:00pm 11.0 9.5 6.9 76 2.0 SSW 4 4 2 2 1019.2 1018.6 0.0
30/07:30pm 12.4 10.3 6.7 68 2.8 SSW 7 9 4 5 1019.1 1018.5 0.0
30/07:00pm 12.7 10.6 6.7 67 2.9 SSW 7 9 4 5 1018.9 1018.3 0.0
30/06:30pm 13.4 11.3 6.7 64 3.3 SSW 7 9 4 5 1018.6 1018.0 0.0
30/06:00pm 13.7 11.6 6.6 62 3.5 SSW 7 9 4 5 1018.3 1017.7 0.0
30/05:30pm 14.8 12.8 6.1 56 4.2 SSW 6 6 3 3 1017.9 1017.3 0.0
30/05:00pm 16.6 14.3 5.6 48 5.4 S 7 9 4 5 1017.5 1016.8 0.0
30/04:30pm 17.5 15.6 5.1 44 6.0 SSE 4 7 2 4 1017.4 1016.7 0.0
30/04:00pm 18.0 16.2 5.2 43 6.3 SSW 4 9 2 5 1017.1 1016.5 0.0
30/03:30pm 17.8 15.5 4.7 42 6.3 SSE 6 7 3 4 1017.1 1016.5 0.0
30/03:00pm 17.9 15.4 4.8 42 6.3 S 7 13 4 7 1016.9 1016.3 0.0
30/02:30pm 18.3 16.5 5.2 42 6.4 S 4 7 2 4 1016.8 1016.2 0.0
30/02:00pm 18.1 15.7 4.3 40 6.6 WSW 6 11 3 6 1017.1 1016.5 0.0
30/01:30pm 17.8 15.5 4.7 42 6.3 SSE 6 11 3 6 1017.2 1016.6 0.0
30/01:00pm 17.7 15.2 5.0 43 6.2 E 7 11 4 6 1017.6 1017.0 0.0
30/12:30pm 17.2 15.0 5.2 45 5.8 ESE 6 13 3 7 1017.8 1017.2 0.0
30/12:00pm 17.0 14.5 5.0 45 5.8 ESE 7 15 4 8 1018.3 1017.7 0.0
30/11:30am 16.7 14.1 6.2 50 5.2 E 9 17 5 9 1018.8 1018.2 0.0
30/11:00am 16.6 14.3 7.3 54 4.7 E 9 17 5 9 1019.2 1018.6 0.0
30/10:30am 15.8 12.6 6.8 55 4.5 E 13 17 7 9 1019.8 1019.2 0.0
30/10:00am 14.9 12.1 7.0 59 3.9 E 11 17 6 9 1020.0 1019.4 0.0
30/09:30am 13.2 10.4 6.8 65 3.1 ESE 11 17 6 9 1020.0 1019.4 0.0
30/09:00am 12.8 9.8 7.9 72 2.4 E 13 17 7 9 1020.0 1019.4 0.0
30/08:30am 10.7 9.4 10.1 96 0.3 ESE 7 7 4 4 1020.0 1019.4 0.0
30/08:00am 8.4 7.7 8.4 100 0.0 SE 2 4 1 2 1020.0 1019.4 0.0
30/07:30am 7.5 6.9 7.5 100 0.0 CALM 0 0 0 0 1019.7 1019.1 0.0
30/07:00am 6.9 6.2 6.9 100 0.0 CALM 0 0 0 0 1019.5 1018.9 0.0
30/06:30am 7.3 5.9 7.3 100 0.0 E 4 6 2 3 1019.0 1018.4 0.0
30/06:00am 7.5 5.8 7.5 100 0.0 E 6 9 3 5 1018.8 1018.2 0.0
30/05:30am 7.3 5.5 7.3 100 0.0 E 6 7 3 4 1018.4 1017.8 0.0
30/05:00am 7.0 6.3 7.0 100 0.0 CALM 0 2 0 1 1018.0 1017.4 0.0
30/04:30am 7.4 6.8 7.4 100 0.0 CALM 0 0 0 0 1017.9 1017.3 0.0
30/04:00am 7.7 7.2 7.7 100 0.0 CALM 0 0 0 0 1017.9 1017.3 0.0
30/03:30am 8.2 7.8 8.2 100 0.0 CALM 0 0 0 0 1017.9 1017.3 0.0
30/03:00am 8.6 8.3 8.6 100 0.0 CALM 0 0 0 0 1017.9 1017.3 0.0
30/02:30am 8.9 8.7 8.9 100 0.0 CALM 0 0 0 0 1017.8 1017.2 0.0
30/02:00am 10.1 10.2 10.1 100 0.0 CALM 0 0 0 0 1017.9 1017.3 0.0
30/01:30am 10.3 9.3 10.3 100 0.0 NE 6 6 3 3 1018.0 1017.4 0.0
30/01:00am 10.1 10.2 10.1 100 0.0 CALM 0 6 0 3 1018.1 1017.5 0.0
30/12:30am 10.9 10.3 10.4 97 0.3 E 4 6 2 3 1018.3 1017.7 0.0
30/12:00am 10.6 10.3 10.0 96 0.3 ESE 2 4 1 2 1018.5 1017.9 0.0
 
Date/Time
WST
Temp
°C
App
Temp
°C
Dew
Point
Rel
Hum
%
Delta-T
°C
Wind Press
QNH
hPa
Press
MSL
hPa
Rain
since 9 am
mm
Dir
 
Spd
km/h
Gust
km/h
Spd
kts
Gust
kts
29/11:30pm 10.7 10.0 10.1 96 0.3 NE 4 6 2 3 1018.7 1018.1 0.0
29/11:00pm 11.5 10.4 10.1 91 0.7 ESE 6 7 3 4 1018.9 1018.3 0.0
29/10:30pm 11.6 10.9 10.0 90 0.8 SE 4 4 2 2 1019.0 1018.4 0.0
29/10:00pm 11.7 10.4 10.1 90 0.8 SE 7 9 4 5 1019.1 1018.5 0.0
29/09:30pm 11.8 12.0 10.7 93 0.6 CALM 0 0 0 0 1019.1 1018.5 0.0
29/09:00pm 11.2 11.4 10.7 97 0.3 CALM 0 0 0 0 1019.0 1018.4 0.0
29/08:30pm 11.6 11.7 10.2 91 0.7 CALM 0 0 0 0 1018.9 1018.3 0.0
29/08:00pm 11.8 11.8 9.9 88 1.0 CALM 0 4 0 2 1019.2 1018.6 0.0
29/07:30pm 12.5 11.6 9.1 80 1.7 SE 4 6 2 3 1019.0 1018.4 0.0
29/07:00pm 13.4 12.0 9.6 78 2.0 SSE 7 11 4 6 1018.8 1018.2 0.0
29/06:30pm 13.8 12.3 9.0 73 2.5 SE 7 9 4 5 1018.3 1017.7 0.0
29/06:00pm 14.7 13.4 9.1 69 2.9 SSE 6 7 3 4 1018.3 1017.7 0.0
29/05:30pm 15.8 14.2 8.8 63 3.6 SSE 7 9 4 5 1018.0 1017.4 0.0
29/05:00pm 16.8 14.9 7.7 55 4.6 SSE 7 13 4 7 1017.7 1017.1 0.0
29/04:30pm 17.5 15.4 6.7 49 5.4 SSE 7 9 4 5 1017.5 1016.8 0.0
29/04:00pm 18.1 17.5 7.2 49 5.5 CALM 0 6 0 3 1017.0 1016.4 0.0
29/03:30pm 17.2 15.7 7.0 51 5.1 SE 4 6 2 3 1017.0 1016.4 0.0
29/03:00pm 17.3 15.4 6.8 50 5.3 SE 6 7 3 4 1017.1 1016.5 0.0
29/02:30pm 17.9 15.0 6.7 48 5.6 SE 11 15 6 8 1017.0 1016.4 0.0
29/02:00pm 18.8 17.3 6.9 46 6.0 SE 4 11 2 6 1017.1 1016.5 0.0

Other Formats:

Comma delimited format used in spreadsheet applications
http://www.bom.gov.au/fwo/IDW60801/IDW60801.94417.axf

JavaScript Object Notation format (JSON) in row-major order
http://www.bom.gov.au/fwo/IDW60801/IDW60801.94417.json